sensor_id;sensor_type;location;lat;lon;timestamp;P1;durP1;ratioP1;P2;durP2;ratioP2
15022;SDS011;19850;49.576;10.880;2022-08-21T00:02:50;10.57;;;6.87;;
15022;SDS011;19850;49.576;10.880;2022-08-21T00:06:54;10.53;;;6.60;;
15022;SDS011;19850;49.576;10.880;2022-08-21T00:10:58;7.83;;;6.63;;
15022;SDS011;19850;49.576;10.880;2022-08-21T00:15:01;9.00;;;6.63;;
15022;SDS011;19850;49.576;10.880;2022-08-21T00:19:08;10.97;;;6.70;;
15022;SDS011;19850;49.576;10.880;2022-08-21T00:23:12;9.63;;;6.20;;
15022;SDS011;19850;49.576;10.880;2022-08-21T00:27:16;9.23;;;5.83;;
15022;SDS011;19850;49.576;10.880;2022-08-21T00:31:19;7.93;;;6.20;;
15022;SDS011;19850;49.576;10.880;2022-08-21T00:35:28;8.80;;;7.03;;
15022;SDS011;19850;49.576;10.880;2022-08-21T00:39:32;9.53;;;7.60;;
15022;SDS011;19850;49.576;10.880;2022-08-21T00:43:37;9.47;;;7.33;;
15022;SDS011;19850;49.576;10.880;2022-08-21T00:47:41;9.50;;;7.60;;
15022;SDS011;19850;49.576;10.880;2022-08-21T00:51:45;11.53;;;7.07;;
15022;SDS011;19850;49.576;10.880;2022-08-21T00:55:50;9.37;;;7.77;;
15022;SDS011;19850;49.576;10.880;2022-08-21T00:59:58;10.60;;;7.00;;
15022;SDS011;19850;49.576;10.880;2022-08-21T01:04:02;8.90;;;7.20;;
15022;SDS011;19850;49.576;10.880;2022-08-21T01:08:05;10.20;;;7.60;;
15022;SDS011;19850;49.576;10.880;2022-08-21T01:12:09;9.77;;;8.77;;
15022;SDS011;19850;49.576;10.880;2022-08-21T01:16:16;11.03;;;9.70;;
15022;SDS011;19850;49.576;10.880;2022-08-21T01:20:20;13.13;;;10.10;;
15022;SDS011;19850;49.576;10.880;2022-08-21T01:24:34;10.40;;;9.40;;
15022;SDS011;19850;49.576;10.880;2022-08-21T01:28:37;10.27;;;9.27;;
15022;SDS011;19850;49.576;10.880;2022-08-21T01:32:41;11.70;;;10.50;;
15022;SDS011;19850;49.576;10.880;2022-08-21T01:36:45;13.70;;;10.33;;
15022;SDS011;19850;49.576;10.880;2022-08-21T01:40:50;15.17;;;11.83;;
15022;SDS011;19850;49.576;10.880;2022-08-21T01:44:57;11.27;;;9.93;;
15022;SDS011;19850;49.576;10.880;2022-08-21T01:49:00;11.77;;;9.90;;
15022;SDS011;19850;49.576;10.880;2022-08-21T01:53:03;13.73;;;10.03;;
15022;SDS011;19850;49.576;10.880;2022-08-21T01:57:08;9.83;;;8.57;;
15022;SDS011;19850;49.576;10.880;2022-08-21T02:01:12;11.17;;;8.97;;
15022;SDS011;19850;49.576;10.880;2022-08-21T02:05:15;10.47;;;9.33;;
15022;SDS011;19850;49.576;10.880;2022-08-21T02:09:18;12.47;;;9.23;;
15022;SDS011;19850;49.576;10.880;2022-08-21T02:13:24;11.50;;;9.40;;
15022;SDS011;19850;49.576;10.880;2022-08-21T02:17:27;11.57;;;10.07;;
15022;SDS011;19850;49.576;10.880;2022-08-21T02:21:30;13.70;;;11.20;;
15022;SDS011;19850;49.576;10.880;2022-08-21T02:25:34;14.23;;;10.87;;
15022;SDS011;19850;49.576;10.880;2022-08-21T02:29:38;11.40;;;10.20;;
15022;SDS011;19850;49.576;10.880;2022-08-21T02:33:42;12.00;;;10.80;;
15022;SDS011;19850;49.576;10.880;2022-08-21T02:37:46;13.60;;;11.80;;
15022;SDS011;19850;49.576;10.880;2022-08-21T02:41:49;13.17;;;11.77;;
15022;SDS011;19850;49.576;10.880;2022-08-21T02:45:54;16.37;;;11.73;;
15022;SDS011;19850;49.576;10.880;2022-08-21T02:49:58;14.33;;;12.90;;
15022;SDS011;19850;49.576;10.880;2022-08-21T02:54:00;14.53;;;13.03;;
15022;SDS011;19850;49.576;10.880;2022-08-21T02:58:04;15.40;;;13.70;;
15022;SDS011;19850;49.576;10.880;2022-08-21T03:02:09;14.63;;;13.20;;
15022;SDS011;19850;49.576;10.880;2022-08-21T03:06:13;14.50;;;13.10;;
15022;SDS011;19850;49.576;10.880;2022-08-21T03:10:17;15.27;;;13.70;;
15022;SDS011;19850;49.576;10.880;2022-08-21T03:14:19;15.93;;;14.10;;
15022;SDS011;19850;49.576;10.880;2022-08-21T03:18:24;14.83;;;13.23;;
15022;SDS011;19850;49.576;10.880;2022-08-21T03:22:27;15.93;;;14.33;;
15022;SDS011;19850;49.576;10.880;2022-08-21T03:26:31;17.17;;;15.37;;
15022;SDS011;19850;49.576;10.880;2022-08-21T03:30:34;17.53;;;15.10;;
15022;SDS011;19850;49.576;10.880;2022-08-21T03:34:39;26.27;;;15.53;;
15022;SDS011;19850;49.576;10.880;2022-08-21T03:38:41;13.30;;;11.90;;
15022;SDS011;19850;49.576;10.880;2022-08-21T03:42:44;12.57;;;11.37;;
15022;SDS011;19850;49.576;10.880;2022-08-21T03:46:48;26.30;;;10.43;;
15022;SDS011;19850;49.576;10.880;2022-08-21T03:50:52;9.30;;;8.50;;
15022;SDS011;19850;49.576;10.880;2022-08-21T03:54:55;9.03;;;8.13;;
15022;SDS011;19850;49.576;10.880;2022-08-21T03:58:58;12.77;;;9.20;;
15022;SDS011;19850;49.576;10.880;2022-08-21T04:03:01;16.70;;;10.00;;
15022;SDS011;19850;49.576;10.880;2022-08-21T04:07:05;10.07;;;9.07;;
15022;SDS011;19850;49.576;10.880;2022-08-21T04:11:08;17.57;;;9.47;;
15022;SDS011;19850;49.576;10.880;2022-08-21T04:15:11;9.50;;;8.70;;
15022;SDS011;19850;49.576;10.880;2022-08-21T04:19:14;10.87;;;9.20;;
15022;SDS011;19850;49.576;10.880;2022-08-21T04:23:18;10.30;;;9.40;;
15022;SDS011;19850;49.576;10.880;2022-08-21T04:27:24;13.03;;;10.10;;
15022;SDS011;19850;49.576;10.880;2022-08-21T04:31:27;10.50;;;9.47;;
15022;SDS011;19850;49.576;10.880;2022-08-21T04:35:30;12.00;;;9.60;;
15022;SDS011;19850;49.576;10.880;2022-08-21T04:39:35;10.73;;;9.73;;
15022;SDS011;19850;49.576;10.880;2022-08-21T04:43:38;7.90;;;7.20;;
15022;SDS011;19850;49.576;10.880;2022-08-21T04:47:41;9.63;;;8.50;;
15022;SDS011;19850;49.576;10.880;2022-08-21T04:51:53;11.43;;;8.60;;
15022;SDS011;19850;49.576;10.880;2022-08-21T04:55:58;9.13;;;7.93;;
15022;SDS011;19850;49.576;10.880;2022-08-21T05:00:04;9.90;;;7.60;;
15022;SDS011;19850;49.576;10.880;2022-08-21T05:04:15;10.47;;;7.47;;
15022;SDS011;19850;49.576;10.880;2022-08-21T05:08:19;8.30;;;7.50;;
15022;SDS011;19850;49.576;10.880;2022-08-21T05:12:25;10.57;;;7.27;;
15022;SDS011;19850;49.576;10.880;2022-08-21T05:16:28;8.27;;;7.33;;
15022;SDS011;19850;49.576;10.880;2022-08-21T05:20:38;10.27;;;6.67;;
15022;SDS011;19850;49.576;10.880;2022-08-21T05:24:42;11.83;;;6.87;;
15022;SDS011;19850;49.576;10.880;2022-08-21T05:28:46;8.50;;;6.37;;
15022;SDS011;19850;49.576;10.880;2022-08-21T05:32:49;7.43;;;6.73;;
15022;SDS011;19850;49.576;10.880;2022-08-21T05:36:52;7.23;;;6.57;;
15022;SDS011;19850;49.576;10.880;2022-08-21T05:40:55;16.30;;;7.67;;
15022;SDS011;19850;49.576;10.880;2022-08-21T05:44:59;6.90;;;6.30;;
15022;SDS011;19850;49.576;10.880;2022-08-21T05:49:02;25.13;;;7.00;;
15022;SDS011;19850;49.576;10.880;2022-08-21T05:53:05;6.77;;;6.20;;
15022;SDS011;19850;49.576;10.880;2022-08-21T05:57:08;7.13;;;6.50;;
15022;SDS011;19850;49.576;10.880;2022-08-21T06:01:12;14.00;;;6.30;;
15022;SDS011;19850;49.576;10.880;2022-08-21T06:05:16;6.50;;;6.00;;
15022;SDS011;19850;49.576;10.880;2022-08-21T06:09:37;6.83;;;6.30;;
15022;SDS011;19850;49.576;10.880;2022-08-21T06:13:40;7.07;;;6.37;;
15022;SDS011;19850;49.576;10.880;2022-08-21T06:17:45;7.23;;;6.63;;
15022;SDS011;19850;49.576;10.880;2022-08-21T06:21:47;8.50;;;7.70;;
15022;SDS011;19850;49.576;10.880;2022-08-21T06:25:50;8.53;;;7.20;;
15022;SDS011;19850;49.576;10.880;2022-08-21T06:29:57;9.97;;;7.57;;
15022;SDS011;19850;49.576;10.880;2022-08-21T06:34:01;7.80;;;7.10;;
15022;SDS011;19850;49.576;10.880;2022-08-21T06:38:04;7.30;;;6.67;;
15022;SDS011;19850;49.576;10.880;2022-08-21T06:42:12;7.73;;;7.03;;
15022;SDS011;19850;49.576;10.880;2022-08-21T06:46:15;8.40;;;7.30;;
15022;SDS011;19850;49.576;10.880;2022-08-21T06:50:19;10.20;;;8.10;;
15022;SDS011;19850;49.576;10.880;2022-08-21T06:54:22;8.73;;;7.93;;
15022;SDS011;19850;49.576;10.880;2022-08-21T06:58:25;7.97;;;7.17;;
15022;SDS011;19850;49.576;10.880;2022-08-21T07:02:27;10.27;;;8.87;;
15022;SDS011;19850;49.576;10.880;2022-08-21T07:06:32;8.77;;;7.83;;
15022;SDS011;19850;49.576;10.880;2022-08-21T07:10:35;8.53;;;7.73;;
15022;SDS011;19850;49.576;10.880;2022-08-21T07:14:37;8.63;;;7.83;;
15022;SDS011;19850;49.576;10.880;2022-08-21T07:18:40;9.10;;;8.20;;
15022;SDS011;19850;49.576;10.880;2022-08-21T07:22:45;9.50;;;8.40;;
15022;SDS011;19850;49.576;10.880;2022-08-21T07:26:48;9.33;;;8.53;;
15022;SDS011;19850;49.576;10.880;2022-08-21T07:30:51;9.27;;;8.37;;
15022;SDS011;19850;49.576;10.880;2022-08-21T07:34:54;10.40;;;9.33;;
15022;SDS011;19850;49.576;10.880;2022-08-21T07:38:58;10.40;;;9.40;;
15022;SDS011;19850;49.576;10.880;2022-08-21T07:43:01;11.07;;;9.97;;
15022;SDS011;19850;49.576;10.880;2022-08-21T07:47:04;12.87;;;10.43;;
15022;SDS011;19850;49.576;10.880;2022-08-21T07:51:08;15.23;;;13.53;;
15022;SDS011;19850;49.576;10.880;2022-08-21T07:55:14;15.87;;;13.77;;
15022;SDS011;19850;49.576;10.880;2022-08-21T07:59:20;13.97;;;12.57;;
15022;SDS011;19850;49.576;10.880;2022-08-21T08:03:23;13.80;;;12.50;;
15022;SDS011;19850;49.576;10.880;2022-08-21T08:07:29;13.80;;;12.27;;
15022;SDS011;19850;49.576;10.880;2022-08-21T08:11:33;15.23;;;12.60;;
15022;SDS011;19850;49.576;10.880;2022-08-21T08:15:37;16.13;;;13.30;;
15022;SDS011;19850;49.576;10.880;2022-08-21T08:19:43;15.23;;;13.63;;
15022;SDS011;19850;49.576;10.880;2022-08-21T08:23:45;15.33;;;12.63;;
15022;SDS011;19850;49.576;10.880;2022-08-21T08:27:50;14.67;;;13.13;;
15022;SDS011;19850;49.576;10.880;2022-08-21T08:31:52;14.53;;;13.03;;
15022;SDS011;19850;49.576;10.880;2022-08-21T08:35:56;14.93;;;13.43;;
15022;SDS011;19850;49.576;10.880;2022-08-21T08:40:03;14.00;;;12.60;;
15022;SDS011;19850;49.576;10.880;2022-08-21T08:44:08;13.77;;;12.37;;
15022;SDS011;19850;49.576;10.880;2022-08-21T08:48:12;13.53;;;12.23;;
15022;SDS011;19850;49.576;10.880;2022-08-21T08:52:17;11.77;;;10.67;;
15022;SDS011;19850;49.576;10.880;2022-08-21T08:56:26;11.97;;;10.87;;
15022;SDS011;19850;49.576;10.880;2022-08-21T09:00:32;10.30;;;9.40;;
15022;SDS011;19850;49.576;10.880;2022-08-21T09:04:35;10.93;;;9.87;;
15022;SDS011;19850;49.576;10.880;2022-08-21T09:08:42;10.63;;;9.60;;
15022;SDS011;19850;49.576;10.880;2022-08-21T09:12:52;10.53;;;9.43;;
15022;SDS011;19850;49.576;10.880;2022-08-21T09:17:02;9.30;;;8.50;;
15022;SDS011;19850;49.576;10.880;2022-08-21T09:21:12;10.00;;;8.87;;
15022;SDS011;19850;49.576;10.880;2022-08-21T09:25:19;8.70;;;7.90;;
15022;SDS011;19850;49.576;10.880;2022-08-21T09:29:25;9.83;;;8.83;;
15022;SDS011;19850;49.576;10.880;2022-08-21T09:33:32;9.20;;;8.27;;
15022;SDS011;19850;49.576;10.880;2022-08-21T09:37:45;8.80;;;8.10;;
15022;SDS011;19850;49.576;10.880;2022-08-21T09:41:54;9.60;;;8.07;;
15022;SDS011;19850;49.576;10.880;2022-08-21T09:46:04;9.00;;;8.10;;
15022;SDS011;19850;49.576;10.880;2022-08-21T09:50:14;8.90;;;8.00;;
15022;SDS011;19850;49.576;10.880;2022-08-21T09:54:18;9.97;;;9.07;;
15022;SDS011;19850;49.576;10.880;2022-08-21T09:58:30;9.83;;;7.33;;
15022;SDS011;19850;49.576;10.880;2022-08-21T10:02:34;8.50;;;7.80;;
15022;SDS011;19850;49.576;10.880;2022-08-21T10:06:39;8.37;;;7.57;;
15022;SDS011;19850;49.576;10.880;2022-08-21T10:10:42;7.30;;;6.60;;
15022;SDS011;19850;49.576;10.880;2022-08-21T10:14:47;7.63;;;6.93;;
15022;SDS011;19850;49.576;10.880;2022-08-21T10:18:56;7.50;;;6.80;;
15022;SDS011;19850;49.576;10.880;2022-08-21T10:23:11;7.57;;;6.90;;
15022;SDS011;19850;49.576;10.880;2022-08-21T10:27:25;7.97;;;6.70;;
15022;SDS011;19850;49.576;10.880;2022-08-21T10:31:36;9.03;;;8.23;;
15022;SDS011;19850;49.576;10.880;2022-08-21T10:35:44;10.63;;;8.40;;
15022;SDS011;19850;49.576;10.880;2022-08-21T10:39:56;7.77;;;6.87;;
15022;SDS011;19850;49.576;10.880;2022-08-21T10:44:12;9.17;;;8.33;;
15022;SDS011;19850;49.576;10.880;2022-08-21T10:48:24;9.93;;;6.37;;
15022;SDS011;19850;49.576;10.880;2022-08-21T10:52:36;9.10;;;8.20;;
15022;SDS011;19850;49.576;10.880;2022-08-21T10:56:56;7.93;;;7.13;;
15022;SDS011;19850;49.576;10.880;2022-08-21T11:01:04;6.20;;;5.60;;
15022;SDS011;19850;49.576;10.880;2022-08-21T11:05:14;9.27;;;6.10;;
15022;SDS011;19850;49.576;10.880;2022-08-21T11:09:20;6.10;;;5.50;;
15022;SDS011;19850;49.576;10.880;2022-08-21T11:13:26;5.87;;;5.30;;
15022;SDS011;19850;49.576;10.880;2022-08-21T11:17:34;7.40;;;4.13;;
15022;SDS011;19850;49.576;10.880;2022-08-21T11:21:41;5.47;;;3.87;;
15022;SDS011;19850;49.576;10.880;2022-08-21T11:25:47;15.93;;;7.20;;
15022;SDS011;19850;49.576;10.880;2022-08-21T11:29:54;6.20;;;4.10;;
15022;SDS011;19850;49.576;10.880;2022-08-21T11:34:01;4.43;;;4.03;;
15022;SDS011;19850;49.576;10.880;2022-08-21T11:38:13;5.57;;;5.07;;
15022;SDS011;19850;49.576;10.880;2022-08-21T11:42:32;8.63;;;4.80;;
15022;SDS011;19850;49.576;10.880;2022-08-21T11:46:43;5.37;;;4.87;;
15022;SDS011;19850;49.576;10.880;2022-08-21T11:50:49;5.50;;;5.00;;
15022;SDS011;19850;49.576;10.880;2022-08-21T11:54:55;4.00;;;3.40;;
15022;SDS011;19850;49.576;10.880;2022-08-21T11:59:02;4.70;;;3.40;;
15022;SDS011;19850;49.576;10.880;2022-08-21T12:03:10;4.30;;;4.00;;
15022;SDS011;19850;49.576;10.880;2022-08-21T12:07:15;5.30;;;4.10;;
15022;SDS011;19850;49.576;10.880;2022-08-21T12:11:23;5.63;;;4.20;;
15022;SDS011;19850;49.576;10.880;2022-08-21T12:15:31;3.43;;;3.13;;
15022;SDS011;19850;49.576;10.880;2022-08-21T12:19:35;4.07;;;3.20;;
15022;SDS011;19850;49.576;10.880;2022-08-21T12:23:44;4.47;;;3.30;;
15022;SDS011;19850;49.576;10.880;2022-08-21T12:27:50;3.53;;;3.23;;
15022;SDS011;19850;49.576;10.880;2022-08-21T12:31:58;4.17;;;2.87;;
15022;SDS011;19850;49.576;10.880;2022-08-21T12:36:06;3.63;;;3.30;;
15022;SDS011;19850;49.576;10.880;2022-08-21T12:40:17;3.27;;;2.97;;
15022;SDS011;19850;49.576;10.880;2022-08-21T12:44:24;3.53;;;3.00;;
15022;SDS011;19850;49.576;10.880;2022-08-21T12:48:31;5.10;;;3.57;;
15022;SDS011;19850;49.576;10.880;2022-08-21T12:52:39;4.70;;;2.90;;
15022;SDS011;19850;49.576;10.880;2022-08-21T12:56:58;4.73;;;2.90;;
15022;SDS011;19850;49.576;10.880;2022-08-21T13:01:03;3.10;;;2.60;;
15022;SDS011;19850;49.576;10.880;2022-08-21T13:05:07;4.73;;;3.00;;
15022;SDS011;19850;49.576;10.880;2022-08-21T13:09:17;3.23;;;2.93;;
15022;SDS011;19850;49.576;10.880;2022-08-21T13:13:22;9.10;;;2.90;;
15022;SDS011;19850;49.576;10.880;2022-08-21T13:17:30;3.30;;;3.00;;
15022;SDS011;19850;49.576;10.880;2022-08-21T13:21:34;3.43;;;3.13;;
15022;SDS011;19850;49.576;10.880;2022-08-21T13:25:42;4.87;;;2.77;;
15022;SDS011;19850;49.576;10.880;2022-08-21T13:29:46;3.50;;;3.00;;
15022;SDS011;19850;49.576;10.880;2022-08-21T13:33:54;3.07;;;2.80;;
15022;SDS011;19850;49.576;10.880;2022-08-21T13:37:58;3.53;;;3.00;;
15022;SDS011;19850;49.576;10.880;2022-08-21T13:42:03;4.00;;;2.60;;
15022;SDS011;19850;49.576;10.880;2022-08-21T13:46:09;3.40;;;2.67;;
15022;SDS011;19850;49.576;10.880;2022-08-21T13:50:13;2.70;;;2.50;;
15022;SDS011;19850;49.576;10.880;2022-08-21T13:54:21;2.80;;;2.60;;
15022;SDS011;19850;49.576;10.880;2022-08-21T13:58:29;2.60;;;2.40;;
15022;SDS011;19850;49.576;10.880;2022-08-21T14:02:45;2.70;;;2.50;;
15022;SDS011;19850;49.576;10.880;2022-08-21T14:06:49;3.30;;;2.70;;
15022;SDS011;19850;49.576;10.880;2022-08-21T14:10:52;3.30;;;3.00;;
15022;SDS011;19850;49.576;10.880;2022-08-21T14:15:01;3.33;;;3.03;;
15022;SDS011;19850;49.576;10.880;2022-08-21T14:19:07;3.63;;;2.43;;
15022;SDS011;19850;49.576;10.880;2022-08-21T14:23:22;3.30;;;2.70;;
15022;SDS011;19850;49.576;10.880;2022-08-21T14:27:26;3.03;;;2.70;;
15022;SDS011;19850;49.576;10.880;2022-08-21T14:31:32;3.80;;;2.43;;
15022;SDS011;19850;49.576;10.880;2022-08-21T14:35:42;4.87;;;2.60;;
15022;SDS011;19850;49.576;10.880;2022-08-21T14:39:44;3.40;;;3.00;;
15022;SDS011;19850;49.576;10.880;2022-08-21T14:43:47;2.73;;;2.53;;
15022;SDS011;19850;49.576;10.880;2022-08-21T14:48:10;3.67;;;2.73;;
15022;SDS011;19850;49.576;10.880;2022-08-21T14:52:13;3.57;;;2.60;;
15022;SDS011;19850;49.576;10.880;2022-08-21T14:56:16;2.77;;;2.30;;
15022;SDS011;19850;49.576;10.880;2022-08-21T15:00:20;3.03;;;2.63;;
15022;SDS011;19850;49.576;10.880;2022-08-21T15:04:28;3.60;;;2.30;;
15022;SDS011;19850;49.576;10.880;2022-08-21T15:08:32;2.50;;;2.30;;
15022;SDS011;19850;49.576;10.880;2022-08-21T15:12:35;3.20;;;2.43;;
15022;SDS011;19850;49.576;10.880;2022-08-21T15:16:38;2.30;;;2.10;;
15022;SDS011;19850;49.576;10.880;2022-08-21T15:20:42;3.53;;;2.50;;
15022;SDS011;19850;49.576;10.880;2022-08-21T15:24:45;2.77;;;2.20;;
15022;SDS011;19850;49.576;10.880;2022-08-21T15:28:48;4.30;;;2.33;;
15022;SDS011;19850;49.576;10.880;2022-08-21T15:32:51;2.67;;;2.30;;
15022;SDS011;19850;49.576;10.880;2022-08-21T15:36:56;2.37;;;2.10;;
15022;SDS011;19850;49.576;10.880;2022-08-21T15:41:01;4.07;;;2.07;;
15022;SDS011;19850;49.576;10.880;2022-08-21T15:45:05;3.50;;;2.33;;
15022;SDS011;19850;49.576;10.880;2022-08-21T15:49:08;4.20;;;2.10;;
15022;SDS011;19850;49.576;10.880;2022-08-21T15:53:12;2.63;;;2.20;;
15022;SDS011;19850;49.576;10.880;2022-08-21T15:57:16;2.63;;;2.20;;
15022;SDS011;19850;49.576;10.880;2022-08-21T16:01:20;2.77;;;2.47;;
15022;SDS011;19850;49.576;10.880;2022-08-21T16:05:24;2.60;;;2.40;;
15022;SDS011;19850;49.576;10.880;2022-08-21T16:09:28;3.23;;;2.47;;
15022;SDS011;19850;49.576;10.880;2022-08-21T16:13:33;2.43;;;2.23;;
15022;SDS011;19850;49.576;10.880;2022-08-21T16:17:39;4.93;;;2.30;;
15022;SDS011;19850;49.576;10.880;2022-08-21T16:21:44;2.70;;;2.17;;
15022;SDS011;19850;49.576;10.880;2022-08-21T16:25:48;2.60;;;2.20;;
15022;SDS011;19850;49.576;10.880;2022-08-21T16:29:53;4.80;;;2.17;;
15022;SDS011;19850;49.576;10.880;2022-08-21T16:33:56;2.83;;;2.30;;
15022;SDS011;19850;49.576;10.880;2022-08-21T16:37:59;4.00;;;2.53;;
15022;SDS011;19850;49.576;10.880;2022-08-21T16:42:04;8.70;;;2.10;;
15022;SDS011;19850;49.576;10.880;2022-08-21T16:46:08;2.20;;;1.93;;
15022;SDS011;19850;49.576;10.880;2022-08-21T16:50:14;2.37;;;2.17;;
15022;SDS011;19850;49.576;10.880;2022-08-21T16:54:18;3.10;;;2.20;;
15022;SDS011;19850;49.576;10.880;2022-08-21T16:58:24;2.87;;;2.10;;
15022;SDS011;19850;49.576;10.880;2022-08-21T17:02:28;3.10;;;2.10;;
15022;SDS011;19850;49.576;10.880;2022-08-21T17:06:33;2.27;;;1.93;;
15022;SDS011;19850;49.576;10.880;2022-08-21T17:10:36;3.20;;;2.40;;
15022;SDS011;19850;49.576;10.880;2022-08-21T17:14:41;2.73;;;2.33;;
15022;SDS011;19850;49.576;10.880;2022-08-21T17:18:44;2.60;;;2.10;;
15022;SDS011;19850;49.576;10.880;2022-08-21T17:22:52;9.03;;;2.23;;
15022;SDS011;19850;49.576;10.880;2022-08-21T17:26:55;7.97;;;2.57;;
15022;SDS011;19850;49.576;10.880;2022-08-21T17:31:00;6.07;;;2.47;;
15022;SDS011;19850;49.576;10.880;2022-08-21T17:35:10;6.40;;;3.10;;
15022;SDS011;19850;49.576;10.880;2022-08-21T17:39:13;10.87;;;3.00;;
15022;SDS011;19850;49.576;10.880;2022-08-21T17:43:26;5.07;;;2.63;;
15022;SDS011;19850;49.576;10.880;2022-08-21T17:47:31;5.90;;;2.73;;
15022;SDS011;19850;49.576;10.880;2022-08-21T17:51:34;8.40;;;2.97;;
15022;SDS011;19850;49.576;10.880;2022-08-21T17:55:37;4.20;;;2.80;;
15022;SDS011;19850;49.576;10.880;2022-08-21T17:59:41;5.27;;;2.70;;
15022;SDS011;19850;49.576;10.880;2022-08-21T18:03:46;4.00;;;2.57;;
15022;SDS011;19850;49.576;10.880;2022-08-21T18:07:49;3.00;;;2.60;;
15022;SDS011;19850;49.576;10.880;2022-08-21T18:11:52;3.83;;;2.50;;
15022;SDS011;19850;49.576;10.880;2022-08-21T18:15:56;4.33;;;2.73;;
15022;SDS011;19850;49.576;10.880;2022-08-21T18:20:03;5.60;;;3.37;;
15022;SDS011;19850;49.576;10.880;2022-08-21T18:24:08;4.73;;;3.00;;
15022;SDS011;19850;49.576;10.880;2022-08-21T18:28:11;4.87;;;3.30;;
15022;SDS011;19850;49.576;10.880;2022-08-21T18:32:14;10.87;;;3.40;;
15022;SDS011;19850;49.576;10.880;2022-08-21T18:36:33;4.20;;;3.03;;
15022;SDS011;19850;49.576;10.880;2022-08-21T18:40:37;6.20;;;3.00;;
15022;SDS011;19850;49.576;10.880;2022-08-21T18:44:42;6.03;;;2.93;;
15022;SDS011;19850;49.576;10.880;2022-08-21T18:48:48;5.00;;;3.17;;
15022;SDS011;19850;49.576;10.880;2022-08-21T18:52:54;5.30;;;3.40;;
15022;SDS011;19850;49.576;10.880;2022-08-21T18:56:57;8.83;;;3.20;;
15022;SDS011;19850;49.576;10.880;2022-08-21T19:01:05;16.03;;;3.70;;
15022;SDS011;19850;49.576;10.880;2022-08-21T19:05:09;9.80;;;3.20;;
15022;SDS011;19850;49.576;10.880;2022-08-21T19:09:15;10.13;;;3.57;;
15022;SDS011;19850;49.576;10.880;2022-08-21T19:13:18;11.00;;;3.70;;
15022;SDS011;19850;49.576;10.880;2022-08-21T19:17:23;11.27;;;3.50;;
15022;SDS011;19850;49.576;10.880;2022-08-21T19:25:44;7.57;;;3.87;;
15022;SDS011;19850;49.576;10.880;2022-08-21T19:29:52;9.03;;;4.03;;
15022;SDS011;19850;49.576;10.880;2022-08-21T19:33:57;6.00;;;3.57;;
15022;SDS011;19850;49.576;10.880;2022-08-21T19:38:02;4.90;;;3.90;;
15022;SDS011;19850;49.576;10.880;2022-08-21T19:42:06;9.07;;;4.20;;
15022;SDS011;19850;49.576;10.880;2022-08-21T19:46:30;7.67;;;4.27;;
15022;SDS011;19850;49.576;10.880;2022-08-21T19:50:35;5.17;;;3.77;;
15022;SDS011;19850;49.576;10.880;2022-08-21T19:54:38;5.07;;;3.90;;
15022;SDS011;19850;49.576;10.880;2022-08-21T19:58:44;5.47;;;4.10;;
15022;SDS011;19850;49.576;10.880;2022-08-21T20:02:50;7.10;;;4.27;;
15022;SDS011;19850;49.576;10.880;2022-08-21T20:06:53;8.77;;;4.63;;
15022;SDS011;19850;49.576;10.880;2022-08-21T20:10:56;6.00;;;4.07;;
15022;SDS011;19850;49.576;10.880;2022-08-21T20:15:06;4.97;;;4.20;;
15022;SDS011;19850;49.576;10.880;2022-08-21T20:19:10;5.80;;;4.30;;
15022;SDS011;19850;49.576;10.880;2022-08-21T20:23:12;6.87;;;4.10;;
15022;SDS011;19850;49.576;10.880;2022-08-21T20:27:28;9.07;;;4.30;;
15022;SDS011;19850;49.576;10.880;2022-08-21T20:31:38;7.93;;;4.97;;
15022;SDS011;19850;49.576;10.880;2022-08-21T20:35:40;7.93;;;4.57;;
15022;SDS011;19850;49.576;10.880;2022-08-21T20:39:45;5.63;;;4.43;;
15022;SDS011;19850;49.576;10.880;2022-08-21T20:43:49;8.87;;;4.53;;
15022;SDS011;19850;49.576;10.880;2022-08-21T20:47:56;8.47;;;4.47;;
15022;SDS011;19850;49.576;10.880;2022-08-21T20:52:00;7.13;;;4.50;;
15022;SDS011;19850;49.576;10.880;2022-08-21T20:56:04;6.23;;;4.53;;
15022;SDS011;19850;49.576;10.880;2022-08-21T21:00:16;6.03;;;4.63;;
15022;SDS011;19850;49.576;10.880;2022-08-21T21:04:29;6.10;;;4.67;;
15022;SDS011;19850;49.576;10.880;2022-08-21T21:08:39;8.63;;;4.40;;
15022;SDS011;19850;49.576;10.880;2022-08-21T21:13:07;6.97;;;4.40;;
15022;SDS011;19850;49.576;10.880;2022-08-21T21:17:15;6.60;;;4.73;;
15022;SDS011;19850;49.576;10.880;2022-08-21T21:21:31;7.70;;;4.57;;
15022;SDS011;19850;49.576;10.880;2022-08-21T21:25:36;8.37;;;4.47;;
15022;SDS011;19850;49.576;10.880;2022-08-21T21:29:42;6.03;;;3.77;;
15022;SDS011;19850;49.576;10.880;2022-08-21T21:33:48;5.87;;;4.40;;
15022;SDS011;19850;49.576;10.880;2022-08-21T21:37:53;7.77;;;4.27;;
15022;SDS011;19850;49.576;10.880;2022-08-21T21:42:03;6.43;;;4.33;;
15022;SDS011;19850;49.576;10.880;2022-08-21T21:46:14;7.63;;;4.20;;
15022;SDS011;19850;49.576;10.880;2022-08-21T21:50:34;6.80;;;4.23;;
15022;SDS011;19850;49.576;10.880;2022-08-21T21:59:18;7.00;;;3.83;;
15022;SDS011;19850;49.576;10.880;2022-08-21T22:03:31;6.13;;;4.27;;
15022;SDS011;19850;49.576;10.880;2022-08-21T22:07:37;6.83;;;4.50;;
15022;SDS011;19850;49.576;10.880;2022-08-21T22:11:50;7.00;;;4.60;;
15022;SDS011;19850;49.576;10.880;2022-08-21T22:15:57;7.60;;;4.40;;
15022;SDS011;19850;49.576;10.880;2022-08-21T22:20:03;7.50;;;4.50;;
15022;SDS011;19850;49.576;10.880;2022-08-21T22:24:13;6.47;;;4.30;;
15022;SDS011;19850;49.576;10.880;2022-08-21T22:28:20;6.50;;;4.13;;
15022;SDS011;19850;49.576;10.880;2022-08-21T22:32:26;8.50;;;4.60;;
15022;SDS011;19850;49.576;10.880;2022-08-21T22:36:33;6.97;;;4.70;;
15022;SDS011;19850;49.576;10.880;2022-08-21T22:40:38;6.67;;;5.40;;
15022;SDS011;19850;49.576;10.880;2022-08-21T22:44:49;10.40;;;6.13;;
15022;SDS011;19850;49.576;10.880;2022-08-21T22:48:56;8.57;;;6.50;;
15022;SDS011;19850;49.576;10.880;2022-08-21T22:53:03;9.60;;;6.20;;
15022;SDS011;19850;49.576;10.880;2022-08-21T22:57:09;7.93;;;6.07;;
15022;SDS011;19850;49.576;10.880;2022-08-21T23:01:16;8.77;;;6.27;;
15022;SDS011;19850;49.576;10.880;2022-08-21T23:05:34;7.47;;;5.40;;
15022;SDS011;19850;49.576;10.880;2022-08-21T23:09:44;6.73;;;5.40;;
15022;SDS011;19850;49.576;10.880;2022-08-21T23:13:53;6.03;;;4.97;;
15022;SDS011;19850;49.576;10.880;2022-08-21T23:17:59;7.77;;;5.73;;
15022;SDS011;19850;49.576;10.880;2022-08-21T23:22:20;8.40;;;5.57;;
15022;SDS011;19850;49.576;10.880;2022-08-21T23:26:37;8.27;;;6.30;;
15022;SDS011;19850;49.576;10.880;2022-08-21T23:30:54;8.20;;;5.83;;
15022;SDS011;19850;49.576;10.880;2022-08-21T23:35:08;7.87;;;5.37;;
15022;SDS011;19850;49.576;10.880;2022-08-21T23:39:19;6.30;;;5.70;;
15022;SDS011;19850;49.576;10.880;2022-08-21T23:43:33;6.97;;;5.50;;
15022;SDS011;19850;49.576;10.880;2022-08-21T23:47:44;8.47;;;5.60;;
15022;SDS011;19850;49.576;10.880;2022-08-21T23:51:56;9.90;;;5.77;;
15022;SDS011;19850;49.576;10.880;2022-08-21T23:56:11;7.97;;;5.40;;
